Time,TemperatureF,DewpointF,PressureIn,WindDirection,WindDirectionDegrees,WindSpeedMPH,WindSpeedGustMPH,Humidity,HourlyPrecipIn,Conditions,Clouds,dailyrainin,SoftwareType,DateUTC
2013-03-11 00:01:00,68.5,63.7,30.03,ESE,122,0.4,4.0,84,0.00,,,0.00,WSDL version 420,2013-03-10 13:01:00,
2013-03-11 00:06:00,-999.0,-99.9,30.03,East,101,1.3,4.3,-999,0.00,,,0.00,WSDL version 420,2013-03-10 13:06:00,
2013-03-11 00:11:00,68.2,63.4,30.03,East,94,0.4,4.3,84,0.30,,,0.30,WSDL version 420,2013-03-10 13:11:00,
2013-03-11 00:16:00,67.9,63.3,30.03,East,87,1.1,2.9,86,0.30,,,0.30,WSDL version 420,2013-03-10 13:16:00,
2013-03-11 00:21:00,67.8,63.7,30.03,ENE,77,0.2,2.5,87,0.30,,,0.30,WSDL version 420,2013-03-10 13:21:00,
2013-03-11 00:26:00,67.7,63.7,30.03,ENE,71,1.3,2.5,88,0.30,,,0.30,WSDL version 420,2013-03-10 13:26:00,
2013-03-11 00:31:00,67.9,64.5,30.03,SE,124,1.7,3.4,89,0.30,,,0.30,WSDL version 420,2013-03-10 13:31:00,
2013-03-11 00:36:00,67.9,64.2,30.00,SSE,154,1.4,3.4,88,0.30,,,0.30,WSDL version 420,2013-03-10 13:36:00,
2013-03-11 00:41:00,67.6,63.9,30.00,ESE,118,0.0,2.7,88,0.30,,,0.30,WSDL version 420,2013-03-10 13:41:00,
2013-03-11 00:46:00,67.6,64.1,30.00,SSE,161,1.5,2.9,89,0.30,,,0.30,WSDL version 420,2013-03-10 13:46:00,
2013-03-11 00:51:00,67.4,64.0,30.00,WSW,240,0.9,2.9,89,0.30,,,0.30,WSDL version 420,2013-03-10 13:51:00,
2013-03-11 00:56:00,67.3,63.9,30.00,SE,124,0.6,2.7,89,0.30,,,0.30,WSDL version 420,2013-03-10 13:56:00,
2013-03-11 01:01:00,67.0,63.5,30.00,SE,124,0.0,2.7,88,0.30,,,0.30,WSDL version 420,2013-03-10 14:01:00,
2013-03-11 01:06:00,66.9,63.5,30.00,ESE,118,0.3,2.5,89,0.30,,,0.30,WSDL version 420,2013-03-10 14:06:00,
2013-03-11 01:11:00,66.7,63.4,30.00,East,90,0.4,2.5,89,0.00,,,0.30,WSDL version 420,2013-03-10 14:11:00,
2013-03-11 01:16:00,66.5,63.4,30.00,NNE,23,0.0,1.6,90,0.00,,,0.30,WSDL version 420,2013-03-10 14:16:00,
2013-03-11 01:21:00,66.4,63.4,30.00,WNW,289,0.0,1.3,90,0.00,,,0.30,WSDL version 420,2013-03-10 14:21:00,
2013-03-11 01:26:00,66.3,63.3,30.00,ENE,68,0.5,1.6,90,0.00,,,0.30,WSDL version 420,2013-03-10 14:26:00,
2013-03-11 01:31:00,66.1,63.3,30.00,ENE,68,0.0,1.6,91,-99.99,,,-99.99,WSDL version 420,2013-03-10 14:31:00,
2013-03-11 01:36:00,66.0,63.3,30.00,ENE,68,0.0,0.0,91,0.00,,,0.30,WSDL version 420,2013-03-10 14:36:00,
2013-03-11 01:41:00,65.8,63.3,30.00,ENE,70,0.0,0.9,92,0.00,,,0.30,WSDL version 420,2013-03-10 14:41:00,
2013-03-11 01:46:00,65.6,63.3,30.00,WSW,255,0.0,0.9,92,0.00,,,0.30,WSDL version 420,2013-03-10 14:46:00,
2013-03-11 01:51:00,65.5,63.2,29.97,SSE,152,0.0,1.1,92,0.00,,,0.30,WSDL version 420,2013-03-10 14:51:00,
2013-03-11 01:56:00,65.4,63.2,29.97,SW,228,0.0,1.1,93,-99.99,,,-99.99,WSDL version 420,2013-03-10 14:56:00,
2013-03-11 02:01:00,65.3,63.3,29.97,NW,315,0.0,2.9,93,0.00,,,0.30,WSDL version 420,2013-03-10 15:01:00,
2013-03-11 02:06:00,65.1,63.1,29.97,West,270,0.0,2.9,93,0.00,,,0.30,WSDL version 420,2013-03-10 15:06:00,
2013-03-11 02:11:00,64.9,63.0,29.97,West,270,0.0,0.0,94,0.00,,,0.30,WSDL version 420,2013-03-10 15:11:00,
2013-03-11 02:16:00,64.8,63.1,29.97,West,270,0.0,0.0,94,-99.99,,,-99.99,WSDL version 420,2013-03-10 15:16:00,
2013-03-11 02:21:00,64.6,63.0,29.97,WNW,293,0.0,0.0,94,0.00,,,0.30,WSDL version 420,2013-03-10 15:21:00,
2013-03-11 02:26:00,64.6,62.9,29.97,West,270,0.0,0.0,94,0.00,,,0.30,WSDL version 420,2013-03-10 15:26:00,
2013-03-11 02:31:00,64.4,62.9,29.97,NW,309,0.0,0.0,94,0.00,,,0.30,WSDL version 420,2013-03-10 15:31:00,
2013-03-11 02:36:00,64.3,62.9,29.97,WNW,293,0.0,0.0,96,0.00,,,0.30,WSDL version 420,2013-03-10 15:36:00,
2013-03-11 02:41:00,64.1,62.8,29.97,West,281,0.0,1.3,96,0.00,,,0.30,WSDL version 420,2013-03-10 15:41:00,
2013-03-11 02:46:00,64.1,62.8,29.97,West,270,0.0,1.3,96,0.00,,,0.30,WSDL version 420,2013-03-10 15:46:00,
2013-03-11 02:51:00,64.0,63.0,29.97,West,270,0.0,0.0,97,0.00,,,0.30,WSDL version 420,2013-03-10 15:51:00,
2013-03-11 02:56:00,63.9,62.9,29.94,West,270,0.0,0.0,97,0.00,,,0.30,WSDL version 420,2013-03-10 15:56:00,
2013-03-11 03:06:00,63.7,62.8,29.97,NW,319,0.1,0.9,97,0.00,,,0.30,WSDL version 420,2013-03-10 16:06:00,
2013-03-11 03:11:00,63.8,63.0,29.97,West,270,0.0,0.9,98,0.00,,,0.30,WSDL version 420,2013-03-10 16:11:00,
2013-03-11 03:21:00,63.9,63.2,29.97,West,270,0.0,0.0,98,0.00,,,0.30,WSDL version 420,2013-03-10 16:21:00,
2013-03-11 03:26:00,63.9,63.2,29.97,West,270,0.0,0.0,98,0.00,,,0.30,WSDL version 420,2013-03-10 16:26:00,
2013-03-11 03:31:00,63.9,63.3,29.97,West,270,0.0,0.0,99,0.00,,,0.30,WSDL version 420,2013-03-10 16:31:00,
2013-03-11 03:36:00,63.9,63.6,29.97,East,90,0.0,0.0,99,0.00,,,0.30,WSDL version 420,2013-03-10 16:36:00,
2013-03-11 03:41:00,64.0,63.7,29.97,ESE,106,0.0,0.0,99,0.00,,,0.30,WSDL version 420,2013-03-10 16:41:00,
2013-03-11 03:46:00,64.0,63.7,29.97,SE,141,0.0,0.0,99,0.00,,,0.30,WSDL version 420,2013-03-10 16:46:00,
2013-03-11 03:51:00,64.0,63.7,29.97,WSW,248,0.0,0.0,99,0.00,,,0.30,WSDL version 420,2013-03-10 16:51:00,
2013-03-11 03:56:00,63.9,63.6,29.97,WSW,255,0.0,0.0,99,0.00,,,0.30,WSDL version 420,2013-03-10 16:56:00,
2013-03-11 04:01:00,63.9,63.5,29.97,West,259,0.0,0.0,99,0.00,,,0.30,WSDL version 420,2013-03-10 17:01:00,
2013-03-11 04:06:00,63.7,63.4,29.97,WSW,248,0.0,0.0,99,0.00,,,0.30,WSDL version 420,2013-03-10 17:06:00,
2013-03-11 04:11:00,63.7,63.5,29.97,West,270,0.0,0.0,100,0.00,,,0.30,WSDL version 420,2013-03-10 17:11:00,
2013-03-11 04:16:00,63.9,63.9,29.97,WSW,248,0.0,0.0,100,0.00,,,0.30,WSDL version 420,2013-03-10 17:16:00,
2013-03-11 04:21:00,64.0,63.9,30.00,West,270,0.0,0.9,100,0.00,,,0.30,WSDL version 420,2013-03-10 17:21:00,
2013-03-11 04:26:00,64.0,64.0,30.00,West,270,0.0,0.9,100,0.00,,,0.30,WSDL version 420,2013-03-10 17:26:00,
2013-03-11 04:31:00,63.9,63.9,30.00,West,270,0.0,0.0,100,0.00,,,0.30,WSDL version 420,2013-03-10 17:31:00,
2013-03-11 04:36:00,63.9,63.9,29.97,West,270,0.0,0.0,100,0.00,,,0.30,WSDL version 420,2013-03-10 17:36:00,
2013-03-11 04:41:00,63.6,63.6,29.97,NNE,23,0.0,0.0,100,0.00,,,0.30,WSDL version 420,2013-03-10 17:41:00,
2013-03-11 04:46:00,63.5,63.5,29.97,NE,48,0.0,0.0,100,0.00,,,0.30,WSDL version 420,2013-03-10 17:46:00,
2013-03-11 04:51:00,63.5,63.5,29.97,SSW,203,0.0,0.0,100,0.00,,,0.30,WSDL version 420,2013-03-10 17:51:00,
2013-03-11 04:56:00,63.5,63.5,29.97,SW,225,0.0,0.0,100,0.00,,,0.30,WSDL version 420,2013-03-10 17:56:00,
2013-03-11 05:01:00,63.5,63.5,29.97,SW,225,0.0,0.0,100,0.00,,,0.30,WSDL version 420,2013-03-10 18:01:00,
2013-03-11 05:06:00,63.4,63.4,29.97,SW,225,0.0,0.0,100,0.00,,,0.30,WSDL version 420,2013-03-10 18:06:00,
2013-03-11 05:11:00,63.3,63.3,29.97,SW,225,0.0,0.0,100,0.00,,,0.30,WSDL version 420,2013-03-10 18:11:00,
2013-03-11 05:16:00,63.3,63.3,29.97,SW,225,0.0,0.0,100,0.00,,,0.30,WSDL version 420,2013-03-10 18:16:00,
2013-03-11 05:26:00,63.1,63.1,30.00,SW,225,0.0,0.0,100,0.00,,,0.30,WSDL version 420,2013-03-10 18:26:00,
2013-03-11 05:31:00,63.1,63.1,30.00,SW,225,0.0,0.0,100,-99.99,,,-99.99,WSDL version 420,2013-03-10 18:31:00,
2013-03-11 05:41:00,63.3,63.3,29.97,WSW,248,0.0,0.0,100,0.00,,,0.30,WSDL version 420,2013-03-10 18:41:00,
2013-03-11 05:46:00,63.4,63.4,29.97,SW,225,0.0,0.0,100,0.00,,,0.30,WSDL version 420,2013-03-10 18:46:00,
2013-03-11 05:56:00,63.5,63.5,29.94,SW,225,0.0,0.0,100,0.00,,,0.30,WSDL version 420,2013-03-10 18:56:00,
2013-03-11 06:01:00,63.6,63.6,29.94,NW,304,0.0,0.0,100,0.00,,,0.30,WSDL version 420,2013-03-10 19:01:00,
2013-03-11 06:06:00,63.7,63.7,29.97,NW,315,0.0,0.0,100,0.00,,,0.30,WSDL version 420,2013-03-10 19:06:00,
2013-03-11 06:11:00,63.8,63.8,29.97,WNW,293,0.0,0.0,100,0.00,,,0.30,WSDL version 420,2013-03-10 19:11:00,
2013-03-11 06:16:00,63.9,63.9,29.97,WNW,293,0.0,0.0,100,0.00,,,0.30,WSDL version 420,2013-03-10 19:16:00,
2013-03-11 06:21:00,63.9,63.9,29.97,West,266,0.0,0.0,100,0.00,,,0.30,WSDL version 420,2013-03-10 19:21:00,
2013-03-11 06:26:00,64.0,64.0,29.97,WSW,248,0.0,0.0,100,0.00,,,0.30,WSDL version 420,2013-03-10 19:26:00,
2013-03-11 06:31:00,64.0,64.0,29.97,West,270,0.0,0.0,100,0.00,,,0.30,WSDL version 420,2013-03-10 19:31:00,
2013-03-11 06:36:00,64.2,64.2,29.97,West,270,0.0,0.0,100,0.00,,,0.30,WSDL version 420,2013-03-10 19:36:00,
2013-03-11 06:46:00,64.4,64.4,29.97,West,275,0.0,0.0,100,0.00,,,0.30,WSDL version 420,2013-03-10 19:46:00,
2013-03-11 06:52:00,64.4,64.4,30.00,West,270,0.0,0.0,100,0.00,,,0.30,WSDL version 420,2013-03-10 19:52:00,
2013-03-11 06:57:00,64.6,64.6,30.00,West,270,0.0,0.0,100,0.00,,,0.30,WSDL version 420,2013-03-10 19:57:00,
2013-03-11 07:03:00,64.6,64.6,30.00,NNW,330,0.0,0.0,100,0.00,,,0.30,WSDL version 420,2013-03-10 20:03:00,
2013-03-11 07:07:00,64.8,64.8,30.00,WNW,293,0.0,0.0,100,0.00,,,0.30,WSDL version 420,2013-03-10 20:07:00,
2013-03-11 07:12:00,64.8,64.8,30.00,NNE,16,0.0,0.0,100,0.00,,,0.30,WSDL version 420,2013-03-10 20:12:00,
2013-03-11 07:17:00,65.0,65.0,30.00,North,357,0.0,0.0,100,0.00,,,0.30,WSDL version 420,2013-03-10 20:17:00,
2013-03-11 07:22:00,65.1,65.1,30.00,SW,225,0.0,0.0,100,0.00,,,0.30,WSDL version 420,2013-03-10 20:22:00,
2013-03-11 07:27:00,65.1,65.1,30.00,SW,225,0.0,0.0,100,0.00,,,0.30,WSDL version 420,2013-03-10 20:27:00,
2013-03-11 07:33:00,65.2,65.2,30.00,SW,225,0.0,0.0,100,0.00,,,0.30,WSDL version 420,2013-03-10 20:33:00,
2013-03-11 07:42:00,65.4,65.4,30.03,SW,225,0.0,0.0,100,0.00,,,0.30,WSDL version 420,2013-03-10 20:42:00,
2013-03-11 07:47:00,65.7,65.7,30.03,WSW,240,0.0,0.0,100,0.00,,,0.30,WSDL version 420,2013-03-10 20:47:00,
2013-03-11 07:52:00,66.1,66.1,30.03,WSW,248,0.0,0.0,100,0.00,,,0.30,WSDL version 420,2013-03-10 20:52:00,
2013-03-11 07:57:00,66.4,66.4,30.03,WSW,248,0.0,0.0,100,0.00,,,0.30,WSDL version 420,2013-03-10 20:57:00,
2013-03-11 08:02:00,66.9,66.9,30.03,WSW,248,0.0,0.0,100,0.00,,,0.30,WSDL version 420,2013-03-10 21:02:00,
2013-03-11 08:07:00,67.3,67.3,30.03,WSW,248,0.0,0.0,100,0.00,,,0.30,WSDL version 420,2013-03-10 21:07:00,
2013-03-11 08:12:00,68.0,68.0,30.03,WSW,248,0.0,0.0,100,0.00,,,0.30,WSDL version 420,2013-03-10 21:12:00,
2013-03-11 08:17:00,68.7,68.7,30.03,West,259,0.0,0.0,100,-99.99,,,-99.99,WSDL version 420,2013-03-10 21:17:00,
2013-03-11 08:22:00,69.7,69.7,30.03,West,270,0.0,0.0,100,0.00,,,0.30,WSDL version 420,2013-03-10 21:22:00,
2013-03-11 08:27:00,70.4,70.4,30.03,West,281,0.0,0.0,100,0.00,,,0.30,WSDL version 420,2013-03-10 21:27:00,
2013-03-11 08:32:00,71.8,71.8,30.03,WNW,295,0.0,0.0,100,0.00,,,0.30,WSDL version 420,2013-03-10 21:32:00,
2013-03-11 08:37:00,73.8,73.8,30.03,NW,305,0.0,0.0,100,-99.99,,,-99.99,WSDL version 420,2013-03-10 21:37:00,
2013-03-11 08:42:00,75.2,75.0,30.03,West,270,0.0,0.0,99,0.00,,,0.30,WSDL version 420,2013-03-10 21:42:00,
2013-03-11 08:47:00,76.7,76.1,30.03,NNW,334,0.0,0.0,96,0.00,,,0.30,WSDL version 420,2013-03-10 21:47:00,
2013-03-11 08:52:00,77.2,74.8,30.03,North,5,0.0,1.3,90,0.00,,,0.30,WSDL version 420,2013-03-10 21:52:00,
2013-03-11 08:58:00,77.1,73.0,30.03,NNW,341,1.0,2.2,86,-99.99,,,-99.99,WSDL version 420,2013-03-10 21:58:00,
2013-03-11 09:07:00,75.9,70.2,30.03,East,94,0.7,1.6,82,0.00,,,0.30,WSDL version 420,2013-03-10 22:07:00,
2013-03-11 09:12:00,76.1,70.6,30.03,WSW,239,0.4,1.6,83,0.00,,,0.30,WSDL version 420,2013-03-10 22:12:00,
2013-03-11 09:17:00,76.4,70.6,30.03,ESE,113,0.0,1.6,81,0.00,,,0.30,WSDL version 420,2013-03-10 22:17:00,
2013-03-11 09:22:00,76.6,70.3,30.03,East,90,1.0,2.5,80,0.00,,,0.30,WSDL version 420,2013-03-10 22:22:00,
2013-03-11 09:27:00,77.1,70.0,30.03,ENE,77,1.4,2.5,77,0.00,,,0.30,WSDL version 420,2013-03-10 22:27:00,
2013-03-11 09:32:00,77.5,69.7,30.03,ENE,74,0.3,2.2,76,0.00,,,0.30,WSDL version 420,2013-03-10 22:32:00,
2013-03-11 09:37:00,78.0,69.7,30.03,NE,53,1.3,2.5,74,0.00,,,0.30,WSDL version 420,2013-03-10 22:37:00,
2013-03-11 09:42:00,78.2,68.2,30.03,NNE,19,1.3,2.7,70,0.00,,,0.30,WSDL version 420,2013-03-10 22:42:00,
2013-03-11 09:47:00,77.9,67.3,30.03,NNE,17,1.3,2.9,70,0.00,,,0.30,WSDL version 420,2013-03-10 22:47:00,
2013-03-11 09:52:00,77.7,66.5,30.03,East,84,1.1,2.9,68,0.00,,,0.30,WSDL version 420,2013-03-10 22:52:00,
2013-03-11 09:57:00,79.4,67.0,30.03,NNE,19,2.5,3.4,63,0.00,,,0.30,WSDL version 420,2013-03-10 22:57:00,
2013-03-11 10:02:00,82.1,67.5,30.03,NE,51,2.9,4.0,59,0.00,,,0.30,WSDL version 420,2013-03-10 23:02:00,
2013-03-11 10:07:00,82.6,66.6,30.06,NE,48,2.0,4.0,56,-99.99,,,-99.99,WSDL version 420,2013-03-10 23:07:00,
2013-03-11 10:12:00,81.8,63.6,30.06,ENE,59,2.8,4.9,55,0.00,,,0.30,WSDL version 420,2013-03-10 23:12:00,
2013-03-11 10:17:00,82.0,63.8,30.06,NE,53,3.4,4.9,53,0.00,,,0.30,WSDL version 420,2013-03-10 23:17:00,
2013-03-11 10:22:00,82.3,62.9,30.06,NE,56,2.2,6.5,53,0.00,,,0.30,WSDL version 420,2013-03-10 23:22:00,
2013-03-11 10:27:00,83.1,64.3,30.06,ENE,71,1.7,6.5,54,0.00,,,0.30,WSDL version 420,2013-03-10 23:27:00,
2013-03-11 10:32:00,83.4,63.9,30.06,NE,55,2.7,5.6,52,0.00,,,0.30,WSDL version 420,2013-03-10 23:32:00,
2013-03-11 10:37:00,84.1,64.3,30.06,SE,135,2.7,5.4,51,0.00,,,0.30,WSDL version 420,2013-03-10 23:37:00,
2013-03-11 10:42:00,84.1,63.5,30.06,NNW,341,3.4,6.3,50,0.00,,,0.30,WSDL version 420,2013-03-10 23:42:00,
2013-03-11 10:47:00,84.3,63.4,30.06,NE,45,3.2,6.3,49,0.00,,,0.30,WSDL version 420,2013-03-10 23:47:00,
2013-03-11 10:52:00,83.8,62.2,30.06,NNE,16,3.2,6.0,49,0.00,,,0.30,WSDL version 420,2013-03-10 23:52:00,
2013-03-11 10:57:00,-999.0,-99.9,30.06,East,83,3.2,7.6,-999,0.00,,,0.30,WSDL version 420,2013-03-10 23:57:00,
2013-03-11 11:02:00,84.8,63.2,30.06,ENE,76,3.0,7.6,47,0.00,,,0.30,WSDL version 420,2013-03-11 00:02:00,
2013-03-11 11:08:00,85.8,63.7,30.06,North,8,2.3,5.8,48,0.00,,,0.30,WSDL version 420,2013-03-11 00:08:00,
2013-03-11 11:18:00,86.1,62.5,30.06,ENE,68,1.5,5.4,46,0.00,,,0.30,WSDL version 420,2013-03-11 00:18:00,
2013-03-11 11:27:00,84.3,60.7,30.06,East,84,3.9,7.8,46,0.00,,,0.30,WSDL version 420,2013-03-11 00:27:00,
2013-03-11 11:32:00,84.7,61.8,30.06,ENE,74,2.7,7.6,47,-99.99,,,-99.99,WSDL version 420,2013-03-11 00:32:00,
2013-03-11 11:37:00,84.9,61.8,30.06,ENE,59,4.2,8.5,46,0.00,,,0.30,WSDL version 420,2013-03-11 00:37:00,
2013-03-11 11:42:00,85.7,62.7,30.06,ESE,108,4.3,8.5,45,0.00,,,0.30,WSDL version 420,2013-03-11 00:42:00,
2013-03-11 11:47:00,85.2,60.6,30.06,ENE,73,6.2,8.1,43,0.00,,,0.30,WSDL version 420,2013-03-11 00:47:00,
2013-03-11 11:52:00,84.6,62.5,30.06,NE,42,3.9,8.1,48,0.00,,,0.30,WSDL version 420,2013-03-11 00:52:00,
2013-03-11 11:57:00,85.6,63.1,30.06,ESE,116,3.5,5.8,47,0.00,,,0.30,WSDL version 420,2013-03-11 00:57:00,
2013-03-11 12:02:00,86.9,63.6,30.06,ESE,119,2.7,5.6,46,0.00,,,0.30,WSDL version 420,2013-03-11 01:02:00,
2013-03-11 12:08:00,87.7,63.7,30.06,NE,48,3.4,5.6,45,0.00,,,0.30,WSDL version 420,2013-03-11 01:08:00,
2013-03-11 12:13:00,87.8,63.2,30.06,ENE,65,3.8,6.5,43,0.00,,,0.30,WSDL version 420,2013-03-11 01:13:00,
2013-03-11 12:22:00,87.5,62.0,30.06,NE,35,3.5,6.5,43,0.00,,,0.30,WSDL version 420,2013-03-11 01:22:00,
2013-03-11 12:27:00,86.5,62.5,30.06,ENE,76,3.1,9.8,45,0.00,,,0.30,WSDL version 420,2013-03-11 01:27:00,
2013-03-11 12:32:00,87.5,63.5,30.06,ESE,103,3.9,9.8,45,-99.99,,,-99.99,WSDL version 420,2013-03-11 01:32:00,
2013-03-11 12:37:00,86.8,63.0,30.06,NE,51,4.0,9.8,45,0.00,,,0.30,WSDL version 420,2013-03-11 01:37:00,
2013-03-11 12:42:00,86.1,62.9,30.06,NNE,28,4.2,8.7,46,0.00,,,0.30,WSDL version 420,2013-03-11 01:42:00,
2013-03-11 12:47:00,85.6,63.2,30.06,SSE,160,3.6,8.7,47,0.00,,,0.30,WSDL version 420,2013-03-11 01:47:00,
2013-03-11 12:52:00,86.5,64.0,30.06,ESE,119,5.1,8.7,47,0.00,,,0.30,WSDL version 420,2013-03-11 01:52:00,
2013-03-11 12:57:00,87.3,64.8,30.06,ENE,68,3.6,8.7,47,0.00,,,0.30,WSDL version 420,2013-03-11 01:57:00,
2013-03-11 13:02:00,86.8,63.4,30.06,ENE,68,5.4,8.5,46,0.00,,,0.30,WSDL version 420,2013-03-11 02:02:00,
2013-03-11 13:07:00,85.8,62.6,30.06,ENE,68,2.8,8.5,47,0.00,,,0.30,WSDL version 420,2013-03-11 02:07:00,
2013-03-11 13:12:00,-999.0,-99.9,30.06,ENE,71,2.5,6.3,-999,-99.99,,,-99.99,WSDL version 420,2013-03-11 02:12:00,
2013-03-11 13:17:00,84.2,62.8,30.06,NE,53,3.1,7.2,50,0.00,,,0.30,WSDL version 420,2013-03-11 02:17:00,
2013-03-11 13:22:00,83.7,63.3,30.03,East,94,2.8,7.2,49,0.00,,,0.30,WSDL version 420,2013-03-11 02:22:00,
2013-03-11 13:27:00,83.2,62.5,30.03,ENE,68,5.9,11.0,49,0.00,,,0.30,WSDL version 420,2013-03-11 02:27:00,
2013-03-11 13:32:00,83.1,63.3,30.03,NE,48,2.7,11.0,52,0.00,,,0.30,WSDL version 420,2013-03-11 02:32:00,
2013-03-11 13:37:00,84.2,64.2,30.03,East,87,4.0,8.7,51,0.00,,,0.30,WSDL version 420,2013-03-11 02:37:00,
2013-03-11 13:42:00,84.7,64.4,30.03,SE,145,3.5,6.5,51,0.00,,,0.30,WSDL version 420,2013-03-11 02:42:00,
2013-03-11 13:47:00,84.8,64.2,30.03,ESE,107,3.6,7.8,50,0.00,,,0.30,WSDL version 420,2013-03-11 02:47:00,
2013-03-11 13:52:00,87.0,65.1,30.03,East,87,4.0,7.8,47,0.00,,,0.30,WSDL version 420,2013-03-11 02:52:00,
2013-03-11 13:57:00,85.4,63.9,30.03,SE,138,3.2,7.6,49,-99.99,,,-99.99,WSDL version 420,2013-03-11 02:57:00,
2013-03-11 14:02:00,84.8,63.0,30.03,ESE,105,4.2,7.2,48,0.00,,,0.30,WSDL version 420,2013-03-11 03:02:00,
2013-03-11 14:07:00,85.1,63.6,30.03,East,90,3.4,7.4,49,0.00,,,0.30,WSDL version 420,2013-03-11 03:07:00,
2013-03-11 14:12:00,86.4,63.2,30.03,East,83,3.0,7.4,45,0.00,,,0.30,WSDL version 420,2013-03-11 03:12:00,
2013-03-11 14:17:00,86.7,63.2,30.03,East,82,4.2,9.8,44,0.00,,,0.30,WSDL version 420,2013-03-11 03:17:00,
2013-03-11 14:22:00,86.2,62.8,30.03,SSW,205,3.6,9.8,46,0.00,,,0.30,WSDL version 420,2013-03-11 03:22:00,
2013-03-11 14:27:00,86.6,62.7,30.03,NE,45,4.4,13.0,43,0.00,,,0.30,WSDL version 420,2013-03-11 03:27:00,
2013-03-11 14:32:00,86.2,61.2,30.03,ENE,61,4.7,13.0,43,0.00,,,0.30,WSDL version 420,2013-03-11 03:32:00,
2013-03-11 14:37:00,87.4,62.2,30.03,SSW,193,3.5,8.5,43,0.00,,,0.30,WSDL version 420,2013-03-11 03:37:00,
2013-03-11 14:42:00,87.5,61.3,30.03,SE,143,3.9,8.7,41,0.00,,,0.30,WSDL version 420,2013-03-11 03:42:00,
2013-03-11 14:47:00,87.5,60.7,30.03,SE,129,3.5,8.7,42,0.00,,,0.30,WSDL version 420,2013-03-11 03:47:00,
2013-03-11 14:52:00,88.0,61.9,30.03,SE,132,3.2,7.8,41,0.00,,,0.30,WSDL version 420,2013-03-11 03:52:00,
2013-03-11 14:57:00,87.9,61.8,30.03,ESE,106,4.3,7.8,41,-99.99,,,-99.99,WSDL version 420,2013-03-11 03:57:00,
2013-03-11 15:02:00,88.2,62.4,30.03,SSE,158,2.7,7.2,43,0.00,,,0.30,WSDL version 420,2013-03-11 04:02:00,
2013-03-11 15:07:00,87.7,61.6,30.03,SSE,163,4.2,6.5,42,0.00,,,0.30,WSDL version 420,2013-03-11 04:07:00,
2013-03-11 15:13:00,87.8,62.2,30.03,ENE,77,2.8,7.4,42,0.00,,,0.30,WSDL version 420,2013-03-11 04:13:00,
2013-03-11 15:17:00,87.2,62.3,30.03,SSE,148,2.8,8.1,43,0.00,,,0.30,WSDL version 420,2013-03-11 04:17:00,
2013-03-11 15:22:00,86.5,62.7,30.03,East,90,4.0,8.1,45,0.00,,,0.30,WSDL version 420,2013-03-11 04:22:00,
2013-03-11 15:27:00,86.3,63.1,30.03,NE,48,3.2,7.4,46,0.00,,,0.30,WSDL version 420,2013-03-11 04:27:00,
2013-03-11 15:32:00,87.0,63.6,30.03,ESE,103,3.3,6.9,46,0.00,,,0.30,WSDL version 420,2013-03-11 04:32:00,
2013-03-11 15:37:00,87.4,64.1,30.03,ENE,58,3.2,6.9,46,0.00,,,0.30,WSDL version 420,2013-03-11 04:37:00,
2013-03-11 15:42:00,87.6,63.8,30.03,SE,132,3.8,7.8,45,-99.99,,,-99.99,WSDL version 420,2013-03-11 04:42:00,
2013-03-11 15:47:00,86.5,63.0,30.03,ESE,116,3.8,8.1,46,0.00,,,0.30,WSDL version 420,2013-03-11 04:47:00,
2013-03-11 15:52:00,86.7,62.5,30.03,East,90,4.3,8.1,44,0.00,,,0.30,WSDL version 420,2013-03-11 04:52:00,
2013-03-11 15:57:00,86.5,62.2,30.03,East,79,3.8,7.6,44,0.00,,,0.30,WSDL version 420,2013-03-11 04:57:00,
2013-03-11 16:02:00,86.6,61.9,30.03,East,82,4.7,12.1,43,0.00,,,0.30,WSDL version 420,2013-03-11 05:02:00,
2013-03-11 16:07:00,87.4,62.2,30.03,South,180,3.4,12.1,42,0.00,,,0.30,WSDL version 420,2013-03-11 05:07:00,
2013-03-11 16:12:00,88.1,61.6,30.03,SSE,151,3.1,6.3,40,0.00,,,0.30,WSDL version 420,2013-03-11 05:12:00,
2013-03-11 16:17:00,89.4,61.5,30.03,ENE,65,2.7,6.3,39,0.00,,,0.30,WSDL version 420,2013-03-11 05:17:00,
2013-03-11 16:22:00,90.0,61.7,30.03,SE,125,3.5,4.9,39,0.00,,,0.30,WSDL version 420,2013-03-11 05:22:00,
2013-03-11 16:27:00,89.0,60.8,30.03,ENE,73,3.1,10.3,40,0.00,,,0.30,WSDL version 420,2013-03-11 05:27:00,
2013-03-11 16:32:00,88.1,60.3,30.03,NE,39,2.7,10.3,40,0.00,,,0.30,WSDL version 420,2013-03-11 05:32:00,
2013-03-11 16:37:00,87.3,60.5,30.03,North,354,1.6,5.4,41,0.00,,,0.30,WSDL version 420,2013-03-11 05:37:00,
2013-03-11 16:42:00,85.9,59.5,30.03,NE,41,4.7,7.4,41,0.00,,,0.30,WSDL version 420,2013-03-11 05:42:00,
2013-03-11 16:47:00,83.0,58.6,30.03,NE,38,4.3,10.3,45,0.00,,,0.30,WSDL version 420,2013-03-11 05:47:00,
2013-03-11 16:52:00,81.9,59.9,30.03,NE,56,4.1,10.3,47,0.00,,,0.30,WSDL version 420,2013-03-11 05:52:00,
2013-03-11 16:57:00,81.3,59.9,30.03,NNE,29,3.9,10.3,49,-99.99,,,-99.99,WSDL version 420,2013-03-11 05:57:00,
2013-03-11 17:02:00,82.2,60.6,30.03,NE,45,3.8,8.1,48,0.00,,,0.30,WSDL version 420,2013-03-11 06:02:00,
2013-03-11 17:07:00,82.9,60.7,30.03,NE,34,4.3,8.1,47,0.00,,,0.30,WSDL version 420,2013-03-11 06:07:00,
2013-03-11 17:12:00,82.8,60.9,30.03,NE,42,6.2,8.5,48,0.00,,,0.30,WSDL version 420,2013-03-11 06:12:00,
2013-03-11 17:17:00,82.8,61.4,30.03,NE,35,4.4,8.5,48,0.00,,,0.30,WSDL version 420,2013-03-11 06:17:00,
2013-03-11 17:22:00,82.5,61.1,30.03,ENE,65,6.5,10.3,49,0.00,,,0.30,WSDL version 420,2013-03-11 06:22:00,
2013-03-11 17:27:00,82.4,61.9,30.03,NNW,341,2.2,10.3,50,0.00,,,0.30,WSDL version 420,2013-03-11 06:27:00,
2013-03-11 17:32:00,82.7,61.6,30.03,NE,38,3.5,8.7,49,0.00,,,0.30,WSDL version 420,2013-03-11 06:32:00,
2013-03-11 17:37:00,82.4,61.6,30.03,ENE,65,4.8,8.7,50,0.00,,,0.30,WSDL version 420,2013-03-11 06:37:00,
2013-03-11 17:42:00,81.1,62.0,30.03,NE,53,6.0,8.5,54,0.00,,,0.30,WSDL version 420,2013-03-11 06:42:00,
2013-03-11 17:47:00,79.7,62.6,30.03,NNE,23,4.6,12.1,57,0.00,,,0.30,WSDL version 420,2013-03-11 06:47:00,
2013-03-11 17:52:00,78.8,62.9,30.03,ENE,60,3.8,12.1,59,0.00,,,0.30,WSDL version 420,2013-03-11 06:52:00,
2013-03-11 17:57:00,78.7,63.5,30.03,ESE,109,3.8,8.1,60,0.00,,,0.30,WSDL version 420,2013-03-11 06:57:00,
2013-03-11 18:02:00,79.6,64.4,30.03,ENE,64,2.6,8.1,59,0.00,,,0.30,WSDL version 420,2013-03-11 07:02:00,
2013-03-11 18:07:00,80.2,64.3,30.00,ENE,71,2.3,4.9,58,-99.99,,,-99.99,WSDL version 420,2013-03-11 07:07:00,
2013-03-11 18:12:00,80.5,64.1,30.00,NE,51,4.1,8.1,58,0.00,,,0.30,WSDL version 420,2013-03-11 07:12:00,
2013-03-11 18:17:00,79.9,64.1,30.00,ENE,60,3.5,8.1,59,0.00,,,0.30,WSDL version 420,2013-03-11 07:17:00,
2013-03-11 18:22:00,-999.0,-99.9,30.03,ENE,75,3.1,6.5,-999,0.00,,,0.30,WSDL version 420,2013-03-11 07:22:00,
2013-03-11 18:27:00,78.3,64.0,30.03,East,79,3.3,5.6,63,0.00,,,0.30,WSDL version 420,2013-03-11 07:27:00,
2013-03-11 18:32:00,77.1,63.2,30.03,SSE,149,3.0,7.6,60,0.00,,,0.30,WSDL version 420,2013-03-11 07:32:00,
2013-03-11 18:37:00,76.2,61.3,30.03,NE,53,4.1,7.6,60,0.00,,,0.30,WSDL version 420,2013-03-11 07:37:00,
2013-03-11 18:42:00,75.6,61.7,30.03,East,93,3.5,6.5,63,0.00,,,0.30,WSDL version 420,2013-03-11 07:42:00,
2013-03-11 18:47:00,75.0,62.5,30.03,ENE,76,3.6,6.5,66,0.00,,,0.30,WSDL version 420,2013-03-11 07:47:00,
2013-03-11 18:52:00,74.8,62.9,30.03,NNE,23,5.1,6.5,67,0.00,,,0.30,WSDL version 420,2013-03-11 07:52:00,
2013-03-11 18:57:00,74.5,63.2,30.03,NE,41,3.7,6.5,68,0.00,,,0.30,WSDL version 420,2013-03-11 07:57:00,
2013-03-11 19:02:00,74.2,63.7,30.03,NE,56,3.3,6.9,70,0.00,,,0.30,WSDL version 420,2013-03-11 08:02:00,
2013-03-11 19:07:00,74.0,64.0,30.03,ENE,58,2.2,6.9,72,0.00,,,0.30,WSDL version 420,2013-03-11 08:07:00,
2013-03-11 19:12:00,73.8,64.6,30.03,NE,45,3.3,5.8,73,0.00,,,0.30,WSDL version 420,2013-03-11 08:12:00,
2013-03-11 19:17:00,73.4,64.3,30.03,ENE,76,4.0,7.8,73,0.00,,,0.30,WSDL version 420,2013-03-11 08:17:00,
2013-03-11 19:22:00,73.2,64.4,30.00,East,93,3.5,7.8,74,0.00,,,0.30,WSDL version 420,2013-03-11 08:22:00,
2013-03-11 19:27:00,73.0,64.3,30.00,East,87,3.9,8.5,74,0.00,,,0.30,WSDL version 420,2013-03-11 08:27:00,
2013-03-11 19:32:00,72.9,64.1,30.00,East,80,2.8,8.5,74,0.00,,,0.30,WSDL version 420,2013-03-11 08:32:00,
2013-03-11 19:37:00,72.7,63.6,30.03,East,84,2.4,5.8,73,-99.99,,,-99.99,WSDL version 420,2013-03-11 08:37:00,
2013-03-11 19:42:00,72.5,63.2,30.03,East,83,0.6,4.0,72,0.00,,,0.30,WSDL version 420,2013-03-11 08:42:00,
2013-03-11 19:47:00,72.2,62.7,30.03,East,80,1.8,3.1,72,0.00,,,0.30,WSDL version 420,2013-03-11 08:47:00,
2013-03-11 19:52:00,72.0,62.4,30.03,ESE,122,0.6,3.1,72,0.00,,,0.30,WSDL version 420,2013-03-11 08:52:00,
2013-03-11 19:57:00,71.7,62.3,30.03,NE,42,1.8,2.7,73,0.00,,,0.30,WSDL version 420,2013-03-11 08:57:00,
2013-03-11 20:02:00,71.5,62.6,30.03,SE,135,1.7,3.1,73,0.00,,,0.30,WSDL version 420,2013-03-11 09:02:00,
2013-03-11 20:07:00,71.4,62.3,30.03,East,79,0.0,3.1,73,0.00,,,0.30,WSDL version 420,2013-03-11 09:07:00,
2013-03-11 20:12:00,71.1,62.2,30.03,SSE,161,0.6,2.5,74,0.00,,,0.30,WSDL version 420,2013-03-11 09:12:00,
2013-03-11 20:17:00,70.9,62.2,30.03,East,80,0.5,2.5,74,0.00,,,0.30,WSDL version 420,2013-03-11 09:17:00,
2013-03-11 20:22:00,70.7,63.0,30.06,SE,141,0.0,3.6,76,0.00,,,0.30,WSDL version 420,2013-03-11 09:22:00,
2013-03-11 20:27:00,70.5,63.0,30.06,ENE,60,2.1,3.6,78,-99.99,,,-99.99,WSDL version 420,2013-03-11 09:27:00,
2013-03-11 20:32:00,70.6,63.7,30.06,South,177,0.4,3.4,78,0.00,,,0.30,WSDL version 420,2013-03-11 09:32:00,
2013-03-11 20:37:00,70.5,63.5,30.06,East,87,1.1,3.4,79,0.00,,,0.30,WSDL version 420,2013-03-11 09:37:00,
2013-03-11 20:42:00,70.5,63.5,30.06,East,93,0.8,2.5,79,0.00,,,0.30,WSDL version 420,2013-03-11 09:42:00,
2013-03-11 20:47:00,70.6,64.0,30.06,SSE,148,2.5,2.9,80,0.00,,,0.30,WSDL version 420,2013-03-11 09:47:00,
2013-03-11 20:52:00,70.6,64.1,-100.00,East,90,1.8,3.8,80,0.00,,,0.30,WSDL version 420,2013-03-11 09:52:00,
2013-03-11 20:57:00,70.7,64.1,30.06,NE,35,0.0,3.8,79,0.00,,,0.30,WSDL version 420,2013-03-11 09:57:00,
2013-03-11 21:02:00,70.5,63.8,30.06,ENE,68,1.6,4.5,80,0.00,,,0.30,WSDL version 420,2013-03-11 10:02:00,
2013-03-11 21:07:00,70.7,64.6,30.06,ENE,59,3.1,5.4,81,0.00,,,0.30,WSDL version 420,2013-03-11 10:07:00,
2013-03-11 21:12:00,70.9,64.6,30.06,East,79,1.6,5.4,80,0.00,,,0.30,WSDL version 420,2013-03-11 10:12:00,
2013-03-11 21:18:00,70.7,64.6,30.06,SE,132,2.2,3.6,81,0.00,,,0.30,WSDL version 420,2013-03-11 10:18:00,
2013-03-11 21:27:00,70.7,64.6,30.06,East,86,2.1,4.9,81,0.00,,,0.30,WSDL version 420,2013-03-11 10:27:00,
2013-03-11 21:32:00,70.7,64.6,30.06,WNW,303,0.6,4.3,81,0.00,,,0.30,WSDL version 420,2013-03-11 10:32:00,
2013-03-11 21:37:00,70.6,64.7,30.06,East,83,2.6,4.3,82,0.00,,,0.30,WSDL version 420,2013-03-11 10:37:00,
2013-03-11 21:42:00,70.5,65.2,30.06,SSW,198,1.9,4.3,83,0.00,,,0.30,WSDL version 420,2013-03-11 10:42:00,
2013-03-11 21:47:00,70.6,65.5,30.06,East,98,0.3,6.0,83,0.00,,,0.30,WSDL version 420,2013-03-11 10:47:00,
2013-03-11 21:52:00,70.7,65.7,30.06,NE,39,2.7,6.3,83,0.00,,,0.30,WSDL version 420,2013-03-11 10:52:00,
2013-03-11 21:57:00,70.6,65.1,30.06,NNE,23,1.6,6.3,83,-99.99,,,-99.99,WSDL version 420,2013-03-11 10:57:00,
2013-03-11 22:02:00,70.5,64.9,30.06,NE,49,1.2,2.5,82,0.00,,,0.30,WSDL version 420,2013-03-11 11:02:00,
2013-03-11 22:08:00,70.4,64.8,30.06,ESE,105,0.7,4.0,83,0.00,,,0.30,WSDL version 420,2013-03-11 11:08:00,
2013-03-11 22:17:00,70.7,65.9,30.06,ESE,116,0.0,5.8,84,0.00,,,0.30,WSDL version 420,2013-03-11 11:17:00,
2013-03-11 22:22:00,70.7,65.8,30.06,ESE,105,2.1,3.8,84,0.00,,,0.30,WSDL version 420,2013-03-11 11:22:00,
2013-03-11 22:27:00,70.8,65.6,30.06,ENE,61,3.1,6.5,83,0.00,,,0.30,WSDL version 420,2013-03-11 11:27:00,
2013-03-11 22:32:00,71.0,65.3,30.06,SE,138,1.1,6.5,82,0.00,,,0.30,WSDL version 420,2013-03-11 11:32:00,
2013-03-11 22:37:00,71.1,65.1,30.06,ESE,108,2.2,4.9,81,0.00,,,0.30,WSDL version 420,2013-03-11 11:37:00,
2013-03-11 22:42:00,71.2,65.2,30.06,ENE,65,2.3,4.7,81,-99.99,,,-99.99,WSDL version 420,2013-03-11 11:42:00,
2013-03-11 22:47:00,71.2,64.8,30.06,East,86,1.7,5.6,80,0.00,,,0.30,WSDL version 420,2013-03-11 11:47:00,
2013-03-11 22:52:00,71.3,64.6,30.06,ENE,65,3.9,7.2,79,0.00,,,0.30,WSDL version 420,2013-03-11 11:52:00,
2013-03-11 22:57:00,71.4,64.6,30.06,North,11,2.5,7.2,79,0.00,,,0.30,WSDL version 420,2013-03-11 11:57:00,
2013-03-11 23:02:00,71.4,64.6,30.06,East,100,1.6,6.0,79,0.00,,,0.30,WSDL version 420,2013-03-11 12:02:00,
2013-03-11 23:08:00,71.4,64.6,30.06,ENE,64,4.1,6.5,79,0.00,,,0.30,WSDL version 420,2013-03-11 12:08:00,
2013-03-11 23:17:00,71.6,64.4,30.06,ESE,113,2.7,5.4,78,0.00,,,0.30,WSDL version 420,2013-03-11 12:17:00,
2013-03-11 23:22:00,71.6,64.4,30.06,ENE,70,2.4,4.9,78,-99.99,,,-99.99,WSDL version 420,2013-03-11 12:22:00,
2013-03-11 23:27:00,71.6,64.7,30.06,East,84,3.9,6.3,79,0.00,,,0.30,WSDL version 420,2013-03-11 12:27:00,
2013-03-11 23:32:00,71.6,64.6,30.06,North,10,1.4,6.5,78,0.00,,,0.30,WSDL version 420,2013-03-11 12:32:00,
2013-03-11 23:37:00,71.6,64.7,30.06,ENE,75,2.2,6.5,79,0.00,,,0.30,WSDL version 420,2013-03-11 12:37:00,
2013-03-11 23:42:00,71.5,64.8,30.06,ENE,68,2.5,6.0,80,0.00,,,0.30,WSDL version 420,2013-03-11 12:42:00,
2013-03-11 23:47:00,71.4,65.0,30.06,ENE,68,2.1,4.9,81,-99.99,,,-99.99,WSDL version 420,2013-03-11 12:47:00,
2013-03-11 23:52:00,71.2,65.0,30.06,ENE,70,2.2,4.9,81,0.00,,,0.30,WSDL version 420,2013-03-11 12:52:00,
2013-03-11 23:57:00,71.1,65.0,30.06,East,100,2.1,4.3,81,0.00,,,0.30,WSDL version 420,2013-03-11 12:57:00,